sensor_id;sensor_type;location;lat;lon;timestamp;P1;durP1;ratioP1;P2;durP2;ratioP2
70388;SDS011;58659;49.050;8.530;2023-06-24T00:01:30;3.87;;;2.47;;
70388;SDS011;58659;49.050;8.530;2023-06-24T00:06:22;3.80;;;2.17;;
70388;SDS011;58659;49.050;8.530;2023-06-24T00:11:16;5.90;;;2.83;;
70388;SDS011;58659;49.050;8.530;2023-06-24T00:13:42;5.03;;;2.63;;
70388;SDS011;58659;49.050;8.530;2023-06-24T00:16:08;3.17;;;2.17;;
70388;SDS011;58659;49.050;8.530;2023-06-24T00:18:34;4.97;;;2.80;;
70388;SDS011;58659;49.050;8.530;2023-06-24T00:21:01;4.37;;;2.60;;
70388;SDS011;58659;49.050;8.530;2023-06-24T00:23:27;5.73;;;2.83;;
70388;SDS011;58659;49.050;8.530;2023-06-24T00:25:53;4.83;;;2.40;;
70388;SDS011;58659;49.050;8.530;2023-06-24T00:28:20;4.23;;;2.63;;
70388;SDS011;58659;49.050;8.530;2023-06-24T00:30:46;4.90;;;2.70;;
70388;SDS011;58659;49.050;8.530;2023-06-24T00:33:12;5.37;;;3.00;;
70388;SDS011;58659;49.050;8.530;2023-06-24T00:35:39;4.23;;;2.63;;
70388;SDS011;58659;49.050;8.530;2023-06-24T00:38:04;4.67;;;3.27;;
70388;SDS011;58659;49.050;8.530;2023-06-24T00:40:30;6.10;;;2.60;;
70388;SDS011;58659;49.050;8.530;2023-06-24T00:42:55;4.00;;;2.40;;
70388;SDS011;58659;49.050;8.530;2023-06-24T00:45:21;6.17;;;3.07;;
70388;SDS011;58659;49.050;8.530;2023-06-24T00:47:47;4.17;;;2.30;;
70388;SDS011;58659;49.050;8.530;2023-06-24T00:50:14;4.17;;;2.40;;
70388;SDS011;58659;49.050;8.530;2023-06-24T00:52:40;4.13;;;2.40;;
70388;SDS011;58659;49.050;8.530;2023-06-24T00:55:11;4.97;;;2.77;;
70388;SDS011;58659;49.050;8.530;2023-06-24T00:57:38;6.47;;;2.93;;
70388;SDS011;58659;49.050;8.530;2023-06-24T01:00:05;4.83;;;2.40;;
70388;SDS011;58659;49.050;8.530;2023-06-24T01:02:42;5.30;;;3.00;;
70388;SDS011;58659;49.050;8.530;2023-06-24T01:05:09;6.17;;;2.40;;
70388;SDS011;58659;49.050;8.530;2023-06-24T01:07:36;9.73;;;2.97;;
70388;SDS011;58659;49.050;8.530;2023-06-24T01:10:03;5.47;;;2.50;;
70388;SDS011;58659;49.050;8.530;2023-06-24T01:12:33;5.57;;;2.80;;
70388;SDS011;58659;49.050;8.530;2023-06-24T01:15:03;4.23;;;2.67;;
70388;SDS011;58659;49.050;8.530;2023-06-24T01:22:50;9.10;;;2.80;;
70388;SDS011;58659;49.050;8.530;2023-06-24T01:31:46;5.87;;;2.97;;
70388;SDS011;58659;49.050;8.530;2023-06-24T01:34:26;5.03;;;3.00;;
70388;SDS011;58659;49.050;8.530;2023-06-24T01:39:34;6.13;;;2.83;;
70388;SDS011;58659;49.050;8.530;2023-06-24T01:42:12;5.23;;;3.20;;
70388;SDS011;58659;49.050;8.530;2023-06-24T01:44:40;4.60;;;2.73;;
70388;SDS011;58659;49.050;8.530;2023-06-24T01:47:08;8.40;;;3.53;;
70388;SDS011;58659;49.050;8.530;2023-06-24T01:49:37;7.43;;;3.50;;
70388;SDS011;58659;49.050;8.530;2023-06-24T01:52:05;5.07;;;2.97;;
70388;SDS011;58659;49.050;8.530;2023-06-24T01:54:33;6.23;;;3.37;;
70388;SDS011;58659;49.050;8.530;2023-06-24T01:57:00;6.70;;;2.97;;
70388;SDS011;58659;49.050;8.530;2023-06-24T01:59:28;4.77;;;3.10;;
70388;SDS011;58659;49.050;8.530;2023-06-24T02:01:54;5.57;;;3.10;;
70388;SDS011;58659;49.050;8.530;2023-06-24T02:04:20;5.50;;;3.20;;
70388;SDS011;58659;49.050;8.530;2023-06-24T02:06:48;7.00;;;3.17;;
70388;SDS011;58659;49.050;8.530;2023-06-24T02:09:15;5.77;;;2.97;;
70388;SDS011;58659;49.050;8.530;2023-06-24T02:11:44;6.83;;;2.90;;
70388;SDS011;58659;49.050;8.530;2023-06-24T02:14:10;7.87;;;3.57;;
70388;SDS011;58659;49.050;8.530;2023-06-24T02:16:36;9.13;;;3.73;;
70388;SDS011;58659;49.050;8.530;2023-06-24T02:19:07;6.60;;;2.93;;
70388;SDS011;58659;49.050;8.530;2023-06-24T02:21:34;5.53;;;3.33;;
70388;SDS011;58659;49.050;8.530;2023-06-24T02:24:01;7.73;;;2.83;;
70388;SDS011;58659;49.050;8.530;2023-06-24T02:26:27;6.80;;;3.27;;
70388;SDS011;58659;49.050;8.530;2023-06-24T02:28:53;8.80;;;3.63;;
70388;SDS011;58659;49.050;8.530;2023-06-24T02:31:19;5.50;;;3.10;;
70388;SDS011;58659;49.050;8.530;2023-06-24T02:33:44;7.97;;;3.57;;
70388;SDS011;58659;49.050;8.530;2023-06-24T02:36:09;6.10;;;3.30;;
70388;SDS011;58659;49.050;8.530;2023-06-24T02:38:36;7.53;;;3.53;;
70388;SDS011;58659;49.050;8.530;2023-06-24T02:41:01;7.37;;;3.40;;
70388;SDS011;58659;49.050;8.530;2023-06-24T02:43:29;8.23;;;3.60;;
70388;SDS011;58659;49.050;8.530;2023-06-24T02:45:54;8.53;;;3.40;;
70388;SDS011;58659;49.050;8.530;2023-06-24T02:48:20;6.87;;;3.63;;
70388;SDS011;58659;49.050;8.530;2023-06-24T02:50:46;7.27;;;3.80;;
70388;SDS011;58659;49.050;8.530;2023-06-24T02:53:12;8.03;;;3.00;;
70388;SDS011;58659;49.050;8.530;2023-06-24T02:55:38;5.80;;;3.43;;
70388;SDS011;58659;49.050;8.530;2023-06-24T02:58:06;6.77;;;3.40;;
70388;SDS011;58659;49.050;8.530;2023-06-24T03:00:33;5.20;;;3.27;;
70388;SDS011;58659;49.050;8.530;2023-06-24T03:03:00;6.27;;;3.50;;
70388;SDS011;58659;49.050;8.530;2023-06-24T03:05:26;7.40;;;3.40;;
70388;SDS011;58659;49.050;8.530;2023-06-24T03:07:52;5.93;;;3.23;;
70388;SDS011;58659;49.050;8.530;2023-06-24T03:10:18;7.07;;;3.00;;
70388;SDS011;58659;49.050;8.530;2023-06-24T03:12:43;6.73;;;3.43;;
70388;SDS011;58659;49.050;8.530;2023-06-24T03:15:09;5.10;;;2.93;;
70388;SDS011;58659;49.050;8.530;2023-06-24T03:17:34;6.33;;;2.93;;
70388;SDS011;58659;49.050;8.530;2023-06-24T03:20:00;6.50;;;3.30;;
70388;SDS011;58659;49.050;8.530;2023-06-24T03:22:26;5.03;;;3.33;;
70388;SDS011;58659;49.050;8.530;2023-06-24T03:24:51;6.03;;;3.30;;
70388;SDS011;58659;49.050;8.530;2023-06-24T03:27:18;7.30;;;3.47;;
70388;SDS011;58659;49.050;8.530;2023-06-24T03:29:43;6.93;;;3.30;;
70388;SDS011;58659;49.050;8.530;2023-06-24T03:32:09;7.07;;;3.67;;
70388;SDS011;58659;49.050;8.530;2023-06-24T03:34:34;5.83;;;2.53;;
70388;SDS011;58659;49.050;8.530;2023-06-24T03:36:59;5.67;;;3.20;;
70388;SDS011;58659;49.050;8.530;2023-06-24T03:39:25;4.87;;;2.90;;
70388;SDS011;58659;49.050;8.530;2023-06-24T03:41:50;6.47;;;3.77;;
70388;SDS011;58659;49.050;8.530;2023-06-24T03:44:16;5.47;;;3.27;;
70388;SDS011;58659;49.050;8.530;2023-06-24T03:46:41;5.73;;;3.00;;
70388;SDS011;58659;49.050;8.530;2023-06-24T03:49:06;5.47;;;2.70;;
70388;SDS011;58659;49.050;8.530;2023-06-24T03:51:32;7.03;;;3.20;;
70388;SDS011;58659;49.050;8.530;2023-06-24T03:53:57;5.27;;;3.17;;
70388;SDS011;58659;49.050;8.530;2023-06-24T03:56:23;4.50;;;2.90;;
70388;SDS011;58659;49.050;8.530;2023-06-24T03:58:48;8.30;;;3.30;;
70388;SDS011;58659;49.050;8.530;2023-06-24T04:01:13;6.40;;;2.97;;
70388;SDS011;58659;49.050;8.530;2023-06-24T04:03:39;11.97;;;3.40;;
70388;SDS011;58659;49.050;8.530;2023-06-24T04:06:04;5.40;;;2.93;;
70388;SDS011;58659;49.050;8.530;2023-06-24T04:08:30;6.33;;;3.40;;
70388;SDS011;58659;49.050;8.530;2023-06-24T04:10:55;7.13;;;3.73;;
70388;SDS011;58659;49.050;8.530;2023-06-24T04:13:21;5.50;;;2.97;;
70388;SDS011;58659;49.050;8.530;2023-06-24T04:15:47;6.50;;;2.77;;
70388;SDS011;58659;49.050;8.530;2023-06-24T04:18:12;5.40;;;3.20;;
70388;SDS011;58659;49.050;8.530;2023-06-24T04:20:38;5.77;;;3.03;;
70388;SDS011;58659;49.050;8.530;2023-06-24T04:23:03;5.77;;;2.90;;
70388;SDS011;58659;49.050;8.530;2023-06-24T04:25:30;5.03;;;2.90;;
70388;SDS011;58659;49.050;8.530;2023-06-24T04:27:56;5.47;;;2.70;;
70388;SDS011;58659;49.050;8.530;2023-06-24T04:30:22;6.93;;;3.53;;
70388;SDS011;58659;49.050;8.530;2023-06-24T04:32:47;4.83;;;2.80;;
70388;SDS011;58659;49.050;8.530;2023-06-24T04:35:13;7.30;;;2.93;;
70388;SDS011;58659;49.050;8.530;2023-06-24T04:37:38;4.90;;;2.80;;
70388;SDS011;58659;49.050;8.530;2023-06-24T04:40:03;3.50;;;2.53;;
70388;SDS011;58659;49.050;8.530;2023-06-24T04:42:29;6.07;;;2.90;;
70388;SDS011;58659;49.050;8.530;2023-06-24T04:44:55;4.47;;;2.80;;
70388;SDS011;58659;49.050;8.530;2023-06-24T04:47:20;4.13;;;2.80;;
70388;SDS011;58659;49.050;8.530;2023-06-24T04:49:45;7.43;;;2.80;;
70388;SDS011;58659;49.050;8.530;2023-06-24T04:52:11;4.43;;;2.67;;
70388;SDS011;58659;49.050;8.530;2023-06-24T04:54:37;5.50;;;2.43;;
70388;SDS011;58659;49.050;8.530;2023-06-24T04:57:02;8.60;;;3.03;;
70388;SDS011;58659;49.050;8.530;2023-06-24T04:59:31;7.23;;;3.10;;
70388;SDS011;58659;49.050;8.530;2023-06-24T05:01:56;5.10;;;2.53;;
70388;SDS011;58659;49.050;8.530;2023-06-24T05:04:21;3.30;;;2.33;;
70388;SDS011;58659;49.050;8.530;2023-06-24T05:06:46;4.27;;;2.43;;
70388;SDS011;58659;49.050;8.530;2023-06-24T05:09:12;5.03;;;2.50;;
70388;SDS011;58659;49.050;8.530;2023-06-24T05:11:39;5.10;;;2.67;;
70388;SDS011;58659;49.050;8.530;2023-06-24T05:14:05;4.57;;;2.40;;
70388;SDS011;58659;49.050;8.530;2023-06-24T05:16:30;5.60;;;2.60;;
70388;SDS011;58659;49.050;8.530;2023-06-24T05:18:56;4.37;;;2.63;;
70388;SDS011;58659;49.050;8.530;2023-06-24T05:21:21;4.17;;;2.27;;
70388;SDS011;58659;49.050;8.530;2023-06-24T05:23:46;3.33;;;2.07;;
70388;SDS011;58659;49.050;8.530;2023-06-24T05:43:08;4.33;;;2.40;;
70388;SDS011;58659;49.050;8.530;2023-06-24T05:45:33;2.90;;;2.10;;
70388;SDS011;58659;49.050;8.530;2023-06-24T05:47:59;5.43;;;2.60;;
70388;SDS011;58659;49.050;8.530;2023-06-24T05:50:24;4.10;;;2.47;;
70388;SDS011;58659;49.050;8.530;2023-06-24T05:52:49;4.20;;;2.40;;
70388;SDS011;58659;49.050;8.530;2023-06-24T05:55:15;5.73;;;2.37;;
70388;SDS011;58659;49.050;8.530;2023-06-24T05:57:40;4.53;;;2.60;;
70388;SDS011;58659;49.050;8.530;2023-06-24T06:00:05;3.33;;;1.80;;
70388;SDS011;58659;49.050;8.530;2023-06-24T06:02:32;4.23;;;1.97;;
70388;SDS011;58659;49.050;8.530;2023-06-24T06:04:57;4.97;;;1.77;;
70388;SDS011;58659;49.050;8.530;2023-06-24T06:07:22;4.73;;;2.43;;
70388;SDS011;58659;49.050;8.530;2023-06-24T06:09:48;5.80;;;2.40;;
70388;SDS011;58659;49.050;8.530;2023-06-24T06:12:13;3.97;;;2.33;;
70388;SDS011;58659;49.050;8.530;2023-06-24T06:14:38;3.07;;;2.10;;
70388;SDS011;58659;49.050;8.530;2023-06-24T06:17:04;5.57;;;2.47;;
70388;SDS011;58659;49.050;8.530;2023-06-24T06:19:29;3.57;;;2.20;;
70388;SDS011;58659;49.050;8.530;2023-06-24T06:21:55;6.33;;;2.60;;
70388;SDS011;58659;49.050;8.530;2023-06-24T06:24:20;5.13;;;2.00;;
70388;SDS011;58659;49.050;8.530;2023-06-24T06:26:46;5.87;;;2.23;;
70388;SDS011;58659;49.050;8.530;2023-06-24T06:29:11;2.77;;;1.90;;
70388;SDS011;58659;49.050;8.530;2023-06-24T06:31:37;7.30;;;2.30;;
70388;SDS011;58659;49.050;8.530;2023-06-24T06:34:02;3.00;;;2.13;;
70388;SDS011;58659;49.050;8.530;2023-06-24T06:36:28;3.40;;;1.80;;
70388;SDS011;58659;49.050;8.530;2023-06-24T06:38:53;5.83;;;2.03;;
70388;SDS011;58659;49.050;8.530;2023-06-24T06:41:19;3.57;;;2.00;;
70388;SDS011;58659;49.050;8.530;2023-06-24T06:43:49;3.23;;;1.93;;
70388;SDS011;58659;49.050;8.530;2023-06-24T06:46:17;6.07;;;2.38;;
70388;SDS011;58659;49.050;8.530;2023-06-24T06:48:43;4.38;;;1.73;;
70388;SDS011;58659;49.050;8.530;2023-06-24T07:00:49;3.85;;;2.28;;
70388;SDS011;58659;49.050;8.530;2023-06-24T07:03:15;4.72;;;1.90;;
70388;SDS011;58659;49.050;8.530;2023-06-24T07:05:40;5.13;;;2.65;;
70388;SDS011;58659;49.050;8.530;2023-06-24T07:08:06;3.30;;;2.20;;
70388;SDS011;58659;49.050;8.530;2023-06-24T07:10:31;2.90;;;2.00;;
70388;SDS011;58659;49.050;8.530;2023-06-24T07:12:56;2.70;;;2.10;;
70388;SDS011;58659;49.050;8.530;2023-06-24T07:15:23;2.92;;;2.00;;
70388;SDS011;58659;49.050;8.530;2023-06-24T07:17:50;3.17;;;2.10;;
70388;SDS011;58659;49.050;8.530;2023-06-24T07:20:15;3.83;;;2.28;;
70388;SDS011;58659;49.050;8.530;2023-06-24T07:22:40;3.97;;;2.80;;
70388;SDS011;58659;49.050;8.530;2023-06-24T07:25:06;6.75;;;2.28;;
70388;SDS011;58659;49.050;8.530;2023-06-24T07:27:31;5.60;;;2.30;;
70388;SDS011;58659;49.050;8.530;2023-06-24T07:29:56;3.97;;;2.20;;
70388;SDS011;58659;49.050;8.530;2023-06-24T07:32:22;3.97;;;2.33;;
70388;SDS011;58659;49.050;8.530;2023-06-24T07:34:47;3.72;;;2.00;;
70388;SDS011;58659;49.050;8.530;2023-06-24T07:37:12;3.05;;;1.98;;
70388;SDS011;58659;49.050;8.530;2023-06-24T07:39:38;3.10;;;2.22;;
70388;SDS011;58659;49.050;8.530;2023-06-24T07:42:03;3.50;;;2.38;;
70388;SDS011;58659;49.050;8.530;2023-06-24T07:44:28;3.45;;;2.13;;
70388;SDS011;58659;49.050;8.530;2023-06-24T07:46:54;3.15;;;2.20;;
70388;SDS011;58659;49.050;8.530;2023-06-24T07:49:19;3.22;;;2.50;;
70388;SDS011;58659;49.050;8.530;2023-06-24T07:51:44;4.63;;;2.55;;
70388;SDS011;58659;49.050;8.530;2023-06-24T07:54:10;2.72;;;2.13;;
70388;SDS011;58659;49.050;8.530;2023-06-24T07:56:35;3.70;;;2.28;;
70388;SDS011;58659;49.050;8.530;2023-06-24T07:59:01;4.57;;;2.55;;
70388;SDS011;58659;49.050;8.530;2023-06-24T08:01:27;5.20;;;2.53;;
70388;SDS011;58659;49.050;8.530;2023-06-24T08:03:52;3.40;;;2.30;;
70388;SDS011;58659;49.050;8.530;2023-06-24T08:06:18;3.03;;;2.15;;
70388;SDS011;58659;49.050;8.530;2023-06-24T08:08:43;3.78;;;2.53;;
70388;SDS011;58659;49.050;8.530;2023-06-24T08:11:11;3.10;;;2.35;;
70388;SDS011;58659;49.050;8.530;2023-06-24T08:13:36;3.65;;;2.35;;
70388;SDS011;58659;49.050;8.530;2023-06-24T08:16:01;2.63;;;2.10;;
70388;SDS011;58659;49.050;8.530;2023-06-24T08:18:27;4.70;;;2.42;;
70388;SDS011;58659;49.050;8.530;2023-06-24T08:20:52;2.27;;;2.00;;
70388;SDS011;58659;49.050;8.530;2023-06-24T08:23:18;7.88;;;2.13;;
70388;SDS011;58659;49.050;8.530;2023-06-24T08:25:43;2.63;;;2.13;;
70388;SDS011;58659;49.050;8.530;2023-06-24T08:28:08;4.20;;;2.60;;
70388;SDS011;58659;49.050;8.530;2023-06-24T08:30:34;3.30;;;2.35;;
70388;SDS011;58659;49.050;8.530;2023-06-24T08:32:59;3.55;;;2.20;;
70388;SDS011;58659;49.050;8.530;2023-06-24T08:35:24;2.40;;;1.92;;
70388;SDS011;58659;49.050;8.530;2023-06-24T08:37:50;3.83;;;2.47;;
70388;SDS011;58659;49.050;8.530;2023-06-24T08:40:15;2.35;;;2.08;;
70388;SDS011;58659;49.050;8.530;2023-06-24T08:42:42;3.05;;;1.80;;
70388;SDS011;58659;49.050;8.530;2023-06-24T08:45:08;3.75;;;2.10;;
70388;SDS011;58659;49.050;8.530;2023-06-24T08:47:34;2.35;;;1.90;;
70388;SDS011;58659;49.050;8.530;2023-06-24T08:50:04;2.33;;;2.10;;
70388;SDS011;58659;49.050;8.530;2023-06-24T08:52:35;2.90;;;2.10;;
70388;SDS011;58659;49.050;8.530;2023-06-24T08:55:01;2.85;;;1.95;;
70388;SDS011;58659;49.050;8.530;2023-06-24T08:57:30;2.38;;;2.05;;
70388;SDS011;58659;49.050;8.530;2023-06-24T08:59:56;3.13;;;2.33;;
70388;SDS011;58659;49.050;8.530;2023-06-24T09:02:21;4.22;;;1.98;;
70388;SDS011;58659;49.050;8.530;2023-06-24T09:04:47;1.70;;;1.60;;
70388;SDS011;58659;49.050;8.530;2023-06-24T09:07:12;3.50;;;1.90;;
70388;SDS011;58659;49.050;8.530;2023-06-24T09:09:42;2.45;;;2.00;;
70388;SDS011;58659;49.050;8.530;2023-06-24T09:12:10;2.75;;;2.00;;
70388;SDS011;58659;49.050;8.530;2023-06-24T09:14:36;2.78;;;1.73;;
70388;SDS011;58659;49.050;8.530;2023-06-24T09:17:02;2.28;;;1.90;;
70388;SDS011;58659;49.050;8.530;2023-06-24T09:19:28;2.97;;;2.00;;
70388;SDS011;58659;49.050;8.530;2023-06-24T09:22:02;2.80;;;2.05;;
70388;SDS011;58659;49.050;8.530;2023-06-24T09:24:31;3.28;;;2.10;;
70388;SDS011;58659;49.050;8.530;2023-06-24T09:26:57;2.60;;;1.65;;
70388;SDS011;58659;49.050;8.530;2023-06-24T09:29:26;2.63;;;1.67;;
70388;SDS011;58659;49.050;8.530;2023-06-24T09:31:52;3.00;;;1.85;;
70388;SDS011;58659;49.050;8.530;2023-06-24T09:34:18;5.60;;;1.90;;
70388;SDS011;58659;49.050;8.530;2023-06-24T09:36:54;3.22;;;2.03;;
70388;SDS011;58659;49.050;8.530;2023-06-24T09:39:20;1.95;;;1.73;;
70388;SDS011;58659;49.050;8.530;2023-06-24T09:41:50;2.97;;;2.25;;
70388;SDS011;58659;49.050;8.530;2023-06-24T09:44:16;2.20;;;1.67;;
70388;SDS011;58659;49.050;8.530;2023-06-24T09:46:44;3.47;;;1.80;;
70388;SDS011;58659;49.050;8.530;2023-06-24T09:49:09;2.83;;;1.90;;
70388;SDS011;58659;49.050;8.530;2023-06-24T09:51:39;2.47;;;1.90;;
70388;SDS011;58659;49.050;8.530;2023-06-24T09:54:11;2.58;;;2.08;;
70388;SDS011;58659;49.050;8.530;2023-06-24T09:56:46;2.92;;;1.83;;
70388;SDS011;58659;49.050;8.530;2023-06-24T09:59:14;1.98;;;1.70;;
70388;SDS011;58659;49.050;8.530;2023-06-24T10:01:41;2.40;;;1.92;;
70388;SDS011;58659;49.050;8.530;2023-06-24T10:04:08;3.00;;;1.80;;
70388;SDS011;58659;49.050;8.530;2023-06-24T10:06:35;2.17;;;1.73;;
70388;SDS011;58659;49.050;8.530;2023-06-24T10:09:01;2.35;;;1.90;;
70388;SDS011;58659;49.050;8.530;2023-06-24T10:11:27;3.50;;;2.00;;
70388;SDS011;58659;49.050;8.530;2023-06-24T10:13:52;5.75;;;1.70;;
70388;SDS011;58659;49.050;8.530;2023-06-24T10:16:18;3.38;;;1.98;;
70388;SDS011;58659;49.050;8.530;2023-06-24T10:18:44;6.72;;;1.98;;
70388;SDS011;58659;49.050;8.530;2023-06-24T10:21:10;2.47;;;2.00;;
70388;SDS011;58659;49.050;8.530;2023-06-24T10:23:40;5.88;;;1.95;;
70388;SDS011;58659;49.050;8.530;2023-06-24T10:36:54;2.00;;;1.80;;
70388;SDS011;58659;49.050;8.530;2023-06-24T10:39:37;3.70;;;2.00;;
70388;SDS011;58659;49.050;8.530;2023-06-24T10:44:47;3.80;;;1.83;;
70388;SDS011;58659;49.050;8.530;2023-06-24T10:47:13;2.20;;;1.70;;
70388;SDS011;58659;49.050;8.530;2023-06-24T10:49:39;2.22;;;1.92;;
70388;SDS011;58659;49.050;8.530;2023-06-24T10:52:06;3.33;;;2.10;;
70388;SDS011;58659;49.050;8.530;2023-06-24T10:54:32;2.40;;;1.95;;
70388;SDS011;58659;49.050;8.530;2023-06-24T10:56:58;3.05;;;1.63;;
70388;SDS011;58659;49.050;8.530;2023-06-24T10:59:23;1.90;;;1.67;;
70388;SDS011;58659;49.050;8.530;2023-06-24T11:01:55;2.70;;;1.80;;
70388;SDS011;58659;49.050;8.530;2023-06-24T11:04:20;2.92;;;1.92;;
70388;SDS011;58659;49.050;8.530;2023-06-24T11:07:01;3.35;;;2.10;;
70388;SDS011;58659;49.050;8.530;2023-06-24T11:09:27;3.50;;;2.20;;
70388;SDS011;58659;49.050;8.530;2023-06-24T11:11:53;3.53;;;2.00;;
70388;SDS011;58659;49.050;8.530;2023-06-24T11:14:21;2.40;;;1.90;;
70388;SDS011;58659;49.050;8.530;2023-06-24T11:16:46;3.00;;;1.88;;
70388;SDS011;58659;49.050;8.530;2023-06-24T11:19:12;2.33;;;1.67;;
70388;SDS011;58659;49.050;8.530;2023-06-24T11:21:37;2.30;;;1.80;;
70388;SDS011;58659;49.050;8.530;2023-06-24T11:24:03;2.70;;;1.70;;
70388;SDS011;58659;49.050;8.530;2023-06-24T11:26:29;2.67;;;1.75;;
70388;SDS011;58659;49.050;8.530;2023-06-24T11:28:55;2.72;;;2.03;;
70388;SDS011;58659;49.050;8.530;2023-06-24T11:31:26;3.35;;;2.13;;
70388;SDS011;58659;49.050;8.530;2023-06-24T11:33:51;4.13;;;2.22;;
70388;SDS011;58659;49.050;8.530;2023-06-24T11:36:20;2.58;;;1.80;;
70388;SDS011;58659;49.050;8.530;2023-06-24T11:38:46;2.28;;;1.58;;
70388;SDS011;58659;49.050;8.530;2023-06-24T11:41:12;2.70;;;1.70;;
70388;SDS011;58659;49.050;8.530;2023-06-24T15:32:20;2.05;;;1.70;;
70388;SDS011;58659;49.050;8.530;2023-06-24T15:34:45;4.00;;;1.63;;
70388;SDS011;58659;49.050;8.530;2023-06-24T15:37:11;2.92;;;1.73;;
70388;SDS011;58659;49.050;8.530;2023-06-24T15:46:52;2.45;;;1.77;;
70388;SDS011;58659;49.050;8.530;2023-06-24T15:49:17;3.28;;;1.67;;
70388;SDS011;58659;49.050;8.530;2023-06-24T15:51:42;2.38;;;1.70;;
70388;SDS011;58659;49.050;8.530;2023-06-24T15:54:08;2.13;;;1.65;;
70388;SDS011;58659;49.050;8.530;2023-06-24T15:56:33;2.05;;;1.77;;
70388;SDS011;58659;49.050;8.530;2023-06-24T15:58:58;2.13;;;1.40;;
70388;SDS011;58659;49.050;8.530;2023-06-24T16:01:24;3.60;;;1.88;;
70388;SDS011;58659;49.050;8.530;2023-06-24T16:03:49;3.93;;;2.20;;
70388;SDS011;58659;49.050;8.530;2023-06-24T16:06:15;3.05;;;1.90;;
70388;SDS011;58659;49.050;8.530;2023-06-24T16:08:41;2.67;;;1.88;;
70388;SDS011;58659;49.050;8.530;2023-06-24T16:11:06;2.53;;;1.92;;
70388;SDS011;58659;49.050;8.530;2023-06-24T16:13:32;3.53;;;1.98;;
70388;SDS011;58659;49.050;8.530;2023-06-24T16:15:57;2.53;;;1.85;;
70388;SDS011;58659;49.050;8.530;2023-06-24T16:18:23;2.67;;;1.90;;
70388;SDS011;58659;49.050;8.530;2023-06-24T16:40:10;3.38;;;1.73;;
70388;SDS011;58659;49.050;8.530;2023-06-24T16:42:36;3.15;;;1.90;;
70388;SDS011;58659;49.050;8.530;2023-06-24T16:45:01;3.20;;;1.92;;
70388;SDS011;58659;49.050;8.530;2023-06-24T16:47:27;2.35;;;1.75;;
70388;SDS011;58659;49.050;8.530;2023-06-24T16:49:52;4.07;;;2.03;;
70388;SDS011;58659;49.050;8.530;2023-06-24T17:28:43;2.88;;;1.90;;
70388;SDS011;58659;49.050;8.530;2023-06-24T17:48:06;2.15;;;1.60;;
70388;SDS011;58659;49.050;8.530;2023-06-24T17:50:31;3.55;;;1.90;;
70388;SDS011;58659;49.050;8.530;2023-06-24T17:52:58;3.95;;;1.98;;
70388;SDS011;58659;49.050;8.530;2023-06-24T17:55:26;3.95;;;2.08;;
70388;SDS011;58659;49.050;8.530;2023-06-24T17:57:56;3.20;;;1.73;;
70388;SDS011;58659;49.050;8.530;2023-06-24T18:00:21;2.25;;;1.58;;
70388;SDS011;58659;49.050;8.530;2023-06-24T18:02:47;2.72;;;1.90;;
70388;SDS011;58659;49.050;8.530;2023-06-24T18:05:12;2.45;;;1.80;;
70388;SDS011;58659;49.050;8.530;2023-06-24T18:07:37;1.73;;;1.45;;
70388;SDS011;58659;49.050;8.530;2023-06-24T18:10:03;2.67;;;1.80;;
70388;SDS011;58659;49.050;8.530;2023-06-24T18:12:28;2.58;;;1.85;;
70388;SDS011;58659;49.050;8.530;2023-06-24T18:14:54;1.92;;;1.58;;
70388;SDS011;58659;49.050;8.530;2023-06-24T18:17:19;4.05;;;1.95;;
70388;SDS011;58659;49.050;8.530;2023-06-24T18:19:44;5.20;;;1.90;;
70388;SDS011;58659;49.050;8.530;2023-06-24T18:22:11;3.80;;;1.80;;
70388;SDS011;58659;49.050;8.530;2023-06-24T18:24:36;3.83;;;1.70;;
70388;SDS011;58659;49.050;8.530;2023-06-24T18:27:02;2.92;;;1.65;;
70388;SDS011;58659;49.050;8.530;2023-06-24T18:29:28;2.60;;;1.85;;
70388;SDS011;58659;49.050;8.530;2023-06-24T18:31:53;2.65;;;1.70;;
70388;SDS011;58659;49.050;8.530;2023-06-24T18:34:18;2.60;;;2.00;;
70388;SDS011;58659;49.050;8.530;2023-06-24T18:36:44;2.30;;;1.42;;
70388;SDS011;58659;49.050;8.530;2023-06-24T18:39:10;3.13;;;1.60;;
70388;SDS011;58659;49.050;8.530;2023-06-24T18:41:35;3.53;;;2.05;;
70388;SDS011;58659;49.050;8.530;2023-06-24T18:44:01;2.78;;;1.77;;
70388;SDS011;58659;49.050;8.530;2023-06-24T18:46:28;2.05;;;1.40;;
70388;SDS011;58659;49.050;8.530;2023-06-24T18:48:53;3.17;;;1.98;;
70388;SDS011;58659;49.050;8.530;2023-06-24T18:51:19;3.17;;;1.73;;
70388;SDS011;58659;49.050;8.530;2023-06-24T18:53:45;4.05;;;1.90;;
70388;SDS011;58659;49.050;8.530;2023-06-24T18:56:11;3.60;;;1.98;;
70388;SDS011;58659;49.050;8.530;2023-06-24T18:58:36;2.42;;;2.00;;
70388;SDS011;58659;49.050;8.530;2023-06-24T19:01:01;4.13;;;2.15;;
70388;SDS011;58659;49.050;8.530;2023-06-24T19:03:27;2.83;;;1.75;;
70388;SDS011;58659;49.050;8.530;2023-06-24T19:05:52;2.03;;;1.60;;
70388;SDS011;58659;49.050;8.530;2023-06-24T19:08:17;2.30;;;1.60;;
70388;SDS011;58659;49.050;8.530;2023-06-24T19:10:43;2.17;;;1.60;;
70388;SDS011;58659;49.050;8.530;2023-06-24T19:13:08;3.67;;;1.92;;
70388;SDS011;58659;49.050;8.530;2023-06-24T19:15:33;5.10;;;2.35;;
70388;SDS011;58659;49.050;8.530;2023-06-24T19:17:59;3.92;;;1.80;;
70388;SDS011;58659;49.050;8.530;2023-06-24T19:20:24;3.53;;;2.15;;
70388;SDS011;58659;49.050;8.530;2023-06-24T19:22:49;2.72;;;1.65;;
70388;SDS011;58659;49.050;8.530;2023-06-24T19:25:15;2.80;;;1.80;;
70388;SDS011;58659;49.050;8.530;2023-06-24T19:27:40;2.97;;;1.73;;
70388;SDS011;58659;49.050;8.530;2023-06-24T19:30:05;3.70;;;2.20;;
70388;SDS011;58659;49.050;8.530;2023-06-24T19:32:32;4.40;;;2.27;;
70388;SDS011;58659;49.050;8.530;2023-06-24T19:35:01;3.73;;;2.27;;
70388;SDS011;58659;49.050;8.530;2023-06-24T19:47:11;3.87;;;1.90;;
70388;SDS011;58659;49.050;8.530;2023-06-24T19:49:54;5.50;;;1.80;;
70388;SDS011;58659;49.050;8.530;2023-06-24T19:52:20;2.73;;;1.70;;
70388;SDS011;58659;49.050;8.530;2023-06-24T19:54:47;3.23;;;1.87;;
70388;SDS011;58659;49.050;8.530;2023-06-24T19:57:17;3.77;;;1.90;;
70388;SDS011;58659;49.050;8.530;2023-06-24T19:59:42;2.57;;;1.67;;
70388;SDS011;58659;49.050;8.530;2023-06-24T20:02:08;3.93;;;1.63;;
70388;SDS011;58659;49.050;8.530;2023-06-24T20:04:33;2.97;;;1.70;;
70388;SDS011;58659;49.050;8.530;2023-06-24T20:06:59;2.70;;;1.80;;
70388;SDS011;58659;49.050;8.530;2023-06-24T20:09:24;3.23;;;1.80;;
70388;SDS011;58659;49.050;8.530;2023-06-24T20:11:49;3.03;;;1.90;;
70388;SDS011;58659;49.050;8.530;2023-06-24T20:14:15;3.27;;;2.03;;
70388;SDS011;58659;49.050;8.530;2023-06-24T20:16:40;3.50;;;1.40;;
70388;SDS011;58659;49.050;8.530;2023-06-24T20:19:07;2.00;;;1.40;;
70388;SDS011;58659;49.050;8.530;2023-06-24T20:21:33;3.80;;;1.90;;
70388;SDS011;58659;49.050;8.530;2023-06-24T20:23:58;2.20;;;1.70;;
70388;SDS011;58659;49.050;8.530;2023-06-24T20:26:23;1.97;;;1.37;;
70388;SDS011;58659;49.050;8.530;2023-06-24T20:28:49;2.83;;;1.77;;
70388;SDS011;58659;49.050;8.530;2023-06-24T20:31:14;3.63;;;1.67;;
70388;SDS011;58659;49.050;8.530;2023-06-24T20:33:39;3.43;;;1.83;;
70388;SDS011;58659;49.050;8.530;2023-06-24T20:36:05;3.07;;;2.00;;
70388;SDS011;58659;49.050;8.530;2023-06-24T20:38:30;2.73;;;1.90;;
70388;SDS011;58659;49.050;8.530;2023-06-24T20:40:59;4.07;;;2.00;;
70388;SDS011;58659;49.050;8.530;2023-06-24T20:43:24;4.83;;;1.93;;
70388;SDS011;58659;49.050;8.530;2023-06-24T20:45:50;3.63;;;1.90;;
70388;SDS011;58659;49.050;8.530;2023-06-24T20:48:16;3.40;;;2.23;;
70388;SDS011;58659;49.050;8.530;2023-06-24T20:50:42;3.13;;;2.00;;
70388;SDS011;58659;49.050;8.530;2023-06-24T20:53:07;4.23;;;2.00;;
70388;SDS011;58659;49.050;8.530;2023-06-24T20:55:32;3.73;;;1.93;;
70388;SDS011;58659;49.050;8.530;2023-06-24T20:57:57;3.20;;;1.90;;
70388;SDS011;58659;49.050;8.530;2023-06-24T21:00:23;5.07;;;2.17;;